Charlotte, Tennessee
Current Conditions -  °F | °C
As of 12:52 AM on Wednesday 28 Jan 2015 (Local Time) from KCKV Reporting Station
Overcast Overcast  
Wind Chill: 25°   Ceiling: 3100
Heat Index: 31°   Visibility: 8mi
Dew Point: 29°   Wind: 6mph
Humidity: 92%   Direction: 10°N
Pressure: 30.25"   Gusts: NA
Location:  36.18°N, 87.34°W
Report Text: KCKV 280652Z AUTO 01005KT 8SM OVC031 M01/M02 A3025 RMK AO2 SLP247 T10061017
Loading
Personal Weather Stations






























Interactive Weather Map New forecast layout! Learn more

10-Day Weather Forecast

Advertisements
Track Severe Weather on mobile